Time;durP1;ratioP1;P1;durP2;ratioP2;P2;SDS_P1;SDS_P2;PMS_P1;PMS_P2;Temp;Humidity;BMP_temperature;BMP_pressure;BME280_temperature;BME280_humidity;BME280_pressure;Samples;Min_cycle;Max_cycle;Signal;HPM_P1;HPM_P2
2023/07/16 00:02:18;;;;;;;;;;;;;;;17.22;78.62;100797.03;5045496;28;1090;-80
2023/07/16 00:04:44;;;;;;;;;;;;;;;17.24;79.20;100795.06;5039879;28;1201;-79
2023/07/16 00:07:10;;;;;;;;;;;;;;;17.21;79.27;100800.66;5045943;28;1973;-81
2023/07/16 00:09:35;;;;;;;;;;;;;;;17.21;79.28;100795.41;5027972;28;1227;-79
2023/07/16 00:12:00;;;;;;;;;;;;;;;17.21;79.62;100795.41;5041240;28;1074;-80
2023/07/16 00:14:26;;;;;;;;;;;;;;;17.18;80.02;100791.31;5049614;28;1156;-79
2023/07/16 00:16:51;;;;;;;;;;;;;;;17.20;79.96;100799.00;5035887;28;1306;-79
2023/07/16 00:19:16;;;;;;;;;;;;;;;17.20;79.98;100796.38;5030185;28;1130;-79
2023/07/16 00:21:41;;;;;;;;;;;;;;;17.19;80.19;100794.75;5045669;28;1083;-78
2023/07/16 00:24:07;;;;;;;;;;;;;;;17.20;80.61;100799.00;5027416;28;1387;-80
2023/07/16 00:26:32;;;;;;;;;;;;;;;17.16;80.40;100797.72;5028903;28;1906;-79
2023/07/16 00:28:57;;;;;;;;;;;;;;;17.16;80.12;100800.34;5047087;28;1177;-80
2023/07/16 00:31:23;;;;;;;;;;;;;;;17.15;80.27;100785.63;5046731;28;1148;-80
2023/07/16 00:33:48;;;;;;;;;;;;;;;17.13;79.57;100798.84;5023832;28;1279;-80
2023/07/16 00:36:13;;;;;;;;;;;;;;;17.14;79.54;100789.19;5041105;28;1454;-79
2023/07/16 00:38:40;;;;;;;;;;;;;;;17.10;79.30;100782.69;5042956;28;1267;-79
2023/07/16 00:41:05;;;;;;;;;;;;;;;17.08;79.04;100787.25;5025345;28;1620;-80
2023/07/16 00:43:30;;;;;;;;;;;;;;;17.09;78.75;100786.25;5044757;28;1003;-80
2023/07/16 00:45:56;;;;;;;;;;;;;;;17.07;78.77;100796.09;5044176;28;1894;-79
2023/07/16 00:48:21;;;;;;;;;;;;;;;17.07;78.98;100788.25;5041819;28;1321;-79
2023/07/16 00:50:46;;;;;;;;;;;;;;;17.07;78.44;100803.97;5033629;28;1107;-80
2023/07/16 00:53:12;;;;;;;;;;;;;;;17.07;77.86;100796.09;5042811;28;1167;-79
2023/07/16 00:55:38;;;;;;;;;;;;;;;17.05;78.23;100795.47;5024616;28;1201;-79
2023/07/16 00:58:06;;;;;;;;;;;;;;;17.02;77.61;100790.53;5025631;28;1128;-79
2023/07/16 01:00:35;;;;;;;;;;;;;;;16.97;77.80;100791.88;5046689;28;1282;-79
2023/07/16 01:03:05;;;;;;;;;;;;;;;16.95;77.42;100799.06;5030181;28;1310;-79
2023/07/16 01:05:42;;;;;;;;;;;;;;;16.93;77.76;100797.63;5024396;28;1894;-80
2023/07/16 01:08:09;;;;;;;;;;;;;;;16.87;77.24;100799.09;5044713;28;1165;-79
2023/07/16 01:10:35;;;;;;;;;;;;;;;16.82;77.23;100801.41;5029474;28;1488;-79
2023/07/16 01:13:00;;;;;;;;;;;;;;;16.79;76.91;100803.53;5017599;28;1120;-79
2023/07/16 01:15:25;;;;;;;;;;;;;;;16.75;77.32;100808.28;5045993;28;1267;-79
2023/07/16 01:17:51;;;;;;;;;;;;;;;16.71;77.25;100804.38;5049374;28;1201;-80
2023/07/16 01:20:16;;;;;;;;;;;;;;;16.66;77.20;100796.16;5048958;28;1185;-80
2023/07/16 01:23:00;;;;;;;;;;;;;;;16.60;77.40;100797.63;5032350;28;1553;-79
2023/07/16 01:25:25;;;;;;;;;;;;;;;16.55;77.44;100797.31;5040186;28;1963;-79
2023/07/16 01:28:19;;;;;;;;;;;;;;;16.53;77.29;100795.84;5048922;28;1073;-82
2023/07/16 01:30:44;;;;;;;;;;;;;;;16.49;77.44;100794.53;5027311;28;1432;-80
2023/07/16 01:33:12;;;;;;;;;;;;;;;16.48;77.50;100792.91;5050700;28;1165;-80
2023/07/16 01:35:38;;;;;;;;;;;;;;;16.43;77.55;100802.06;5032297;28;1299;-79
2023/07/16 01:38:03;;;;;;;;;;;;;;;16.39;77.25;100800.72;5049763;28;1153;-81
2023/07/16 01:40:30;;;;;;;;;;;;;;;16.38;77.15;100803.53;5048716;28;1196;-80
2023/07/16 01:42:55;;;;;;;;;;;;;;;16.36;77.10;100790.59;5049811;28;1514;-79
2023/07/16 01:45:20;;;;;;;;;;;;;;;16.34;77.10;100792.53;5054222;28;1215;-80
2023/07/16 01:47:48;;;;;;;;;;;;;;;16.35;76.98;100799.44;5047254;28;1957;-80
2023/07/16 01:50:13;;;;;;;;;;;;;;;16.34;76.80;100800.41;5042444;28;1373;-80
2023/07/16 01:52:38;;;;;;;;;;;;;;;16.30;76.82;100793.06;5049174;28;1237;-79
2023/07/16 01:55:04;;;;;;;;;;;;;;;16.28;76.82;100803.66;5039378;28;1211;-80
2023/07/16 01:57:29;;;;;;;;;;;;;;;16.24;76.81;100797.16;5028783;28;1273;-80
2023/07/16 01:59:54;;;;;;;;;;;;;;;16.22;77.36;100787.81;5047520;28;1169;-79
2023/07/16 02:02:20;;;;;;;;;;;;;;;16.18;76.70;100787.34;5047436;28;1427;-79
2023/07/16 02:04:45;;;;;;;;;;;;;;;16.17;76.86;100796.97;5049311;28;1467;-80
2023/07/16 02:07:10;;;;;;;;;;;;;;;16.17;76.65;100796.13;5049275;28;1938;-79
2023/07/16 02:09:35;;;;;;;;;;;;;;;16.15;76.83;100795.50;5048650;28;1130;-80
2023/07/16 02:12:00;;;;;;;;;;;;;;;16.14;76.21;100801.72;5023257;28;1332;-79
2023/07/16 02:14:26;;;;;;;;;;;;;;;16.11;76.49;100802.84;5046787;28;1179;-80
2023/07/16 02:16:51;;;;;;;;;;;;;;;16.08;76.63;100804.97;5039618;28;1511;-79
2023/07/16 02:19:16;;;;;;;;;;;;;;;16.05;76.51;100802.66;5028620;28;1556;-80
2023/07/16 02:21:41;;;;;;;;;;;;;;;16.02;76.66;100813.47;5030721;28;1418;-80
2023/07/16 02:24:06;;;;;;;;;;;;;;;15.99;76.96;100808.53;5045752;28;1221;-80
2023/07/16 02:26:32;;;;;;;;;;;;;;;15.96;77.07;100819.34;5045094;28;1901;-81
2023/07/16 02:28:59;;;;;;;;;;;;;;;15.93;77.04;100816.06;5033151;28;1284;-80
2023/07/16 02:31:24;;;;;;;;;;;;;;;15.90;77.21;100816.38;5033427;28;1342;-79
2023/07/16 02:33:49;;;;;;;;;;;;;;;15.90;77.70;100818.19;5050436;28;1356;-79
2023/07/16 02:36:14;;;;;;;;;;;;;;;15.88;77.92;100817.50;5042125;28;1164;-80
2023/07/16 02:38:39;;;;;;;;;;;;;;;15.84;77.72;100832.72;5048554;28;1159;-79
2023/07/16 02:41:05;;;;;;;;;;;;;;;15.83;77.58;100823.25;5048750;28;1454;-79
2023/07/16 02:43:30;;;;;;;;;;;;;;;15.79;78.17;100824.53;5050377;28;1212;-80
2023/07/16 02:45:55;;;;;;;;;;;;;;;15.79;78.01;100814.06;5028469;28;1898;-80
2023/07/16 02:48:20;;;;;;;;;;;;;;;15.79;78.41;100819.28;5046353;28;1087;-80
2023/07/16 02:50:45;;;;;;;;;;;;;;;15.80;78.50;100815.69;5045036;28;1009;-81
2023/07/16 02:53:11;;;;;;;;;;;;;;;15.76;78.61;100803.91;5049598;28;1012;-80
2023/07/16 02:55:36;;;;;;;;;;;;;;;15.68;79.08;100806.50;5046317;28;1202;-80
2023/07/16 02:58:04;;;;;;;;;;;;;;;15.62;78.81;100817.56;5046364;28;1106;-80
2023/07/16 03:00:29;;;;;;;;;;;;;;;15.54;79.16;100817.53;5030571;28;1366;-80
2023/07/16 03:02:55;;;;;;;;;;;;;;;15.47;79.81;100819.97;5033777;28;1177;-80
2023/07/16 03:05:20;;;;;;;;;;;;;;;15.45;79.83;100816.69;5047990;28;1072;-80
2023/07/16 03:07:45;;;;;;;;;;;;;;;15.41;80.48;100821.41;5027614;28;2401;-79
2023/07/16 03:10:10;;;;;;;;;;;;;;;15.39;80.19;100823.38;5047540;28;1086;-80
2023/07/16 03:12:35;;;;;;;;;;;;;;;15.40;80.17;100811.94;5046389;28;1038;-79
2023/07/16 03:15:01;;;;;;;;;;;;;;;15.41;79.80;100826.63;5046911;28;1122;-79
2023/07/16 03:17:26;;;;;;;;;;;;;;;15.43;80.65;100813.44;5046555;28;1181;-80
2023/07/16 03:19:51;;;;;;;;;;;;;;;15.43;80.15;100817.84;5043162;28;1272;-78
2023/07/16 03:22:16;;;;;;;;;;;;;;;15.44;80.50;100817.69;5046903;28;1169;-79
2023/07/16 03:24:41;;;;;;;;;;;;;;;15.45;79.70;100815.88;5042943;28;1133;-78
2023/07/16 03:27:06;;;;;;;;;;;;;;;15.45;80.13;100823.72;5050403;28;1906;-79
2023/07/16 03:29:35;;;;;;;;;;;;;;;15.48;79.93;100823.38;5046625;28;1160;-79
2023/07/16 03:32:00;;;;;;;;;;;;;;;15.45;80.02;100815.88;5031188;28;1247;-79
2023/07/16 03:34:25;;;;;;;;;;;;;;;15.46;79.50;100822.72;5047119;28;1228;-79
2023/07/16 03:36:51;;;;;;;;;;;;;;;15.48;79.13;100826.00;5033330;28;1256;-79
2023/07/16 03:39:16;;;;;;;;;;;;;;;15.47;79.39;100825.19;5048221;28;1172;-80
2023/07/16 03:41:41;;;;;;;;;;;;;;;15.48;78.97;100836.47;5028495;28;1407;-80
2023/07/16 03:44:06;;;;;;;;;;;;;;;15.46;79.03;100847.06;5027464;28;1436;-80
2023/07/16 03:46:32;;;;;;;;;;;;;;;15.48;79.01;100852.13;5041350;28;1979;-80
2023/07/16 03:48:57;;;;;;;;;;;;;;;15.48;79.37;100858.19;5045900;28;1216;-79
2023/07/16 03:51:22;;;;;;;;;;;;;;;15.48;79.29;100862.59;5042340;28;1246;-80
2023/07/16 03:53:47;;;;;;;;;;;;;;;15.49;79.88;100859.03;5040454;28;1212;-79
2023/07/16 03:56:12;;;;;;;;;;;;;;;15.45;79.68;100863.75;5022531;28;1695;-80
2023/07/16 03:58:37;;;;;;;;;;;;;;;15.45;80.25;100863.75;5044233;28;1073;-79
2023/07/16 04:01:03;;;;;;;;;;;;;;;15.45;80.67;100860.31;5041872;28;1307;-79
2023/07/16 04:03:28;;;;;;;;;;;;;;;15.44;80.54;100866.53;5044793;28;1142;-80
2023/07/16 04:06:00;;;;;;;;;;;;;;;15.41;80.78;100868.44;5029107;28;1959;-79
2023/07/16 04:08:25;;;;;;;;;;;;;;;15.43;80.77;100872.72;5028915;28;1500;-79
2023/07/16 04:10:51;;;;;;;;;;;;;;;15.43;80.53;100875.34;5045151;28;1780;-80
2023/07/16 04:13:16;;;;;;;;;;;;;;;15.39;80.53;100873.03;5035526;28;1484;-80
2023/07/16 04:15:41;;;;;;;;;;;;;;;15.38;81.17;100884.47;5046420;28;1339;-80
2023/07/16 04:18:06;;;;;;;;;;;;;;;15.37;80.42;100889.84;5044821;28;1173;-80
2023/07/16 04:20:33;;;;;;;;;;;;;;;15.37;80.56;100888.06;5045774;28;1134;-80
2023/07/16 04:22:58;;;;;;;;;;;;;;;15.36;80.20;100898.63;5026082;28;1432;-80
2023/07/16 04:25:24;;;;;;;;;;;;;;;15.35;80.16;100895.22;5024167;28;1454;-80
2023/07/16 04:27:49;;;;;;;;;;;;;;;15.35;80.04;100884.75;5044383;28;1894;-79
2023/07/16 04:30:14;;;;;;;;;;;;;;;15.36;80.09;100890.78;5046897;28;1213;-79
2023/07/16 04:32:39;;;;;;;;;;;;;;;15.36;79.73;100894.22;5053392;28;1142;-80
2023/07/16 04:35:05;;;;;;;;;;;;;;;15.36;79.68;100896.84;5047517;28;1222;-81
2023/07/16 04:37:30;;;;;;;;;;;;;;;15.37;79.74;100893.28;5027830;28;1350;-79
2023/07/16 04:39:55;;;;;;;;;;;;;;;15.38;79.71;100910.59;5029095;28;1176;-79
2023/07/16 04:42:20;;;;;;;;;;;;;;;15.37;79.05;100902.91;5025839;28;1299;-79
2023/07/16 04:44:46;;;;;;;;;;;;;;;15.36;79.34;100902.06;5047052;28;1086;-80
2023/07/16 04:47:11;;;;;;;;;;;;;;;15.33;79.12;100912.84;5039607;28;1889;-80
2023/07/16 04:49:36;;;;;;;;;;;;;;;15.32;79.05;100915.63;5027440;28;1208;-79
2023/07/16 04:52:01;;;;;;;;;;;;;;;15.30;79.23;100918.38;5031068;28;1338;-80
2023/07/16 04:54:27;;;;;;;;;;;;;;;15.30;78.83;100915.75;5023763;28;1145;-80
2023/07/16 04:56:52;;;;;;;;;;;;;;;15.31;78.82;100916.56;5028914;28;1208;-80
2023/07/16 04:59:17;;;;;;;;;;;;;;;15.31;78.51;100920.03;5040991;28;1047;-80
2023/07/16 05:01:42;;;;;;;;;;;;;;;15.32;78.31;100926.88;5045676;28;1099;-81
2023/07/16 05:04:07;;;;;;;;;;;;;;;15.32;78.09;100926.88;5026398;28;1252;-80
2023/07/16 05:06:33;;;;;;;;;;;;;;;15.32;78.37;100924.28;5043996;28;1955;-81
2023/07/16 05:08:58;;;;;;;;;;;;;;;15.33;77.91;100928.53;5028534;28;1302;-80
2023/07/16 05:11:25;;;;;;;;;;;;;;;15.37;77.98;100934.28;5028181;28;1330;-79
2023/07/16 05:13:50;;;;;;;;;;;;;;;15.33;77.03;100933.75;5041697;28;1079;-80
2023/07/16 05:16:15;;;;;;;;;;;;;;;15.39;77.91;100932.31;5041800;28;1100;-80
2023/07/16 05:18:41;;;;;;;;;;;;;;;15.38;77.30;100941.97;5029581;28;1196;-80
2023/07/16 05:21:06;;;;;;;;;;;;;;;15.40;77.18;100941.78;5044743;28;1327;-79
2023/07/16 05:23:31;;;;;;;;;;;;;;;15.41;77.15;100941.63;5033085;28;1208;-80
2023/07/16 05:25:56;;;;;;;;;;;;;;;15.45;77.20;100951.78;5046134;28;1993;-79
2023/07/16 05:28:21;;;;;;;;;;;;;;;15.47;76.89;100944.59;5044128;28;1186;-81
2023/07/16 05:30:47;;;;;;;;;;;;;;;15.49;76.88;100945.28;5045498;28;1083;-80
2023/07/16 05:33:12;;;;;;;;;;;;;;;15.52;76.99;100947.59;5044318;28;1507;-79
2023/07/16 05:35:38;;;;;;;;;;;;;;;15.54;76.94;100950.84;5030196;28;1171;-81
2023/07/16 05:38:03;;;;;;;;;;;;;;;15.54;77.26;100951.69;5047283;28;1205;-80
2023/07/16 05:40:29;;;;;;;;;;;;;;;15.58;76.92;100947.78;5046434;28;1263;-80
2023/07/16 05:42:54;;;;;;;;;;;;;;;15.60;76.90;100960.72;5044498;28;1114;-80
2023/07/16 05:45:19;;;;;;;;;;;;;;;15.61;76.46;100962.34;5022544;28;1406;-80
2023/07/16 05:47:44;;;;;;;;;;;;;;;15.65;76.45;100963.69;5051310;28;1890;-81
2023/07/16 05:50:10;;;;;;;;;;;;;;;15.67;76.18;100961.75;5025031;28;1215;-80
2023/07/16 05:52:35;;;;;;;;;;;;;;;15.70;76.28;100966.66;5025447;28;1261;-80
2023/07/16 05:55:00;;;;;;;;;;;;;;;15.72;75.73;100969.97;5031585;28;1319;-80
2023/07/16 05:57:26;;;;;;;;;;;;;;;15.77;76.37;100962.47;5042020;28;1390;-80
2023/07/16 05:59:51;;;;;;;;;;;;;;;15.79;75.81;100970.97;5024518;28;1291;-81
2023/07/16 06:02:16;;;;;;;;;;;;;;;15.83;76.04;100977.56;5029231;28;1284;-80
2023/07/16 06:04:41;;;;;;;;;;;;;;;15.91;75.59;100979.38;5048704;28;1315;-82
2023/07/16 06:07:07;;;;;;;;;;;;;;;15.96;75.01;100971.06;5045153;28;1954;-81
2023/07/16 06:09:32;;;;;;;;;;;;;;;16.01;74.92;100979.28;5026804;28;1237;-80
2023/07/16 06:11:58;;;;;;;;;;;;;;;16.03;75.20;100982.53;5043411;28;1280;-81
2023/07/16 06:14:23;;;;;;;;;;;;;;;16.08;74.59;100985.50;5029752;28;1455;-81
2023/07/16 06:16:48;;;;;;;;;;;;;;;16.14;74.81;100984.88;5048150;28;1153;-82
2023/07/16 06:19:14;;;;;;;;;;;;;;;16.26;74.33;100983.63;5028255;28;1358;-81
2023/07/16 06:21:39;;;;;;;;;;;;;;;16.22;74.16;100982.28;5043437;28;1197;-82
2023/07/16 06:24:04;;;;;;;;;;;;;;;16.31;73.71;100991.81;5031630;28;1170;-81
2023/07/16 06:26:29;;;;;;;;;;;;;;;16.31;73.55;100981.34;5031409;28;2001;-81
2023/07/16 06:28:54;;;;;;;;;;;;;;;16.37;73.03;100996.41;5028802;28;1183;-81
2023/07/16 06:31:20;;;;;;;;;;;;;;;16.44;73.10;100992.16;5045760;28;1280;-81
2023/07/16 06:33:49;;;;;;;;;;;;;;;16.50;73.54;100985.47;5030113;28;1255;-82
2023/07/16 06:36:14;;;;;;;;;;;;;;;16.64;72.44;100991.91;5046516;28;1340;-81
2023/07/16 06:38:40;;;;;;;;;;;;;;;16.65;73.13;100993.53;5047695;28;1109;-81
2023/07/16 06:41:05;;;;;;;;;;;;;;;16.73;73.10;101001.44;5048518;28;1391;-82
2023/07/16 06:43:30;;;;;;;;;;;;;;;16.77;72.64;100997.53;5045351;28;1121;-82
2023/07/16 06:45:56;;;;;;;;;;;;;;;16.83;72.52;101006.53;5032132;28;1945;-81
2023/07/16 06:48:21;;;;;;;;;;;;;;;16.88;72.32;101005.06;5043025;28;981;-81
2023/07/16 06:50:46;;;;;;;;;;;;;;;16.94;72.22;100999.19;5040019;28;1166;-81
2023/07/16 06:53:11;;;;;;;;;;;;;;;16.99;71.51;101003.94;5021938;28;1201;-81
2023/07/16 06:55:37;;;;;;;;;;;;;;;17.04;71.53;101012.16;5028069;28;1165;-81
2023/07/16 06:58:02;;;;;;;;;;;;;;;17.10;71.69;101014.13;5048731;28;1098;-82
2023/07/16 07:00:28;;;;;;;;;;;;;;;17.17;71.50;101014.28;5028734;28;1501;-81
2023/07/16 07:02:53;;;;;;;;;;;;;;;17.21;71.29;101023.47;5048095;28;1057;-80
2023/07/16 07:05:18;;;;;;;;;;;;;;;17.28;71.43;101006.09;5031500;28;1347;-80
2023/07/16 07:07:45;;;;;;;;;;;;;;;17.34;70.82;101021.16;5027690;28;1886;-81
2023/07/16 07:10:10;;;;;;;;;;;;;;;17.39;70.50;101020.66;5044590;28;1091;-80
2023/07/16 07:12:37;;;;;;;;;;;;;;;17.44;70.70;101021.00;5026474;28;1228;-80
2023/07/16 07:15:03;;;;;;;;;;;;;;;17.50;70.57;101026.41;5046317;28;997;-81
2023/07/16 07:17:28;;;;;;;;;;;;;;;17.53;70.23;101033.91;5044962;28;1104;-81
2023/07/16 07:19:53;;;;;;;;;;;;;;;17.60;70.28;101033.25;5045029;28;1203;-81
2023/07/16 07:22:18;;;;;;;;;;;;;;;17.66;69.99;101040.44;5036311;28;1143;-82
2023/07/16 07:24:44;;;;;;;;;;;;;;;17.73;69.90;101031.00;5046697;28;1117;-81
2023/07/16 07:27:09;;;;;;;;;;;;;;;17.78;70.22;101047.06;5042263;28;1961;-81
2023/07/16 07:29:34;;;;;;;;;;;;;;;17.88;69.78;101049.47;5045538;28;1178;-82
2023/07/16 07:32:00;;;;;;;;;;;;;;;17.95;69.21;101046.03;5045129;28;1111;-80
2023/07/16 07:34:25;;;;;;;;;;;;;;;18.01;69.08;101055.84;5030093;28;1182;-81
2023/07/16 07:36:50;;;;;;;;;;;;;;;18.07;68.71;101048.31;5046058;28;1141;-81
2023/07/16 07:39:16;;;;;;;;;;;;;;;18.14;68.80;101049.25;5044178;28;1245;-82
2023/07/16 07:41:41;;;;;;;;;;;;;;;18.21;68.67;101047.59;5040497;28;1215;-80
2023/07/16 07:44:06;;;;;;;;;;;;;;;18.25;68.32;101041.00;5048243;28;1168;-81
2023/07/16 07:46:32;;;;;;;;;;;;;;;18.32;68.23;101047.22;5045887;28;1955;-82
2023/07/16 07:48:57;;;;;;;;;;;;;;;18.39;67.90;101042.91;5022454;28;1397;-81
2023/07/16 07:51:22;;;;;;;;;;;;;;;18.42;67.48;101049.66;5042714;28;1162;-82
2023/07/16 07:53:48;;;;;;;;;;;;;;;18.45;67.47;101051.91;5026879;28;1449;-81
2023/07/16 07:56:13;;;;;;;;;;;;;;;18.54;67.27;101056.97;5045413;28;1138;-81
2023/07/16 07:58:40;;;;;;;;;;;;;;;18.57;67.13;101051.34;5025586;28;1243;-80
2023/07/16 08:01:07;;;;;;;;;;;;;;;18.64;67.15;101048.03;5047784;28;1130;-81
2023/07/16 08:03:33;;;;;;;;;;;;;;;18.73;66.29;101060.19;5044501;28;1456;-82
2023/07/16 08:05:58;;;;;;;;;;;;;;;18.79;66.85;101062.13;5027555;28;1898;-81
2023/07/16 08:08:23;;;;;;;;;;;;;;;18.91;66.16;101066.00;5045921;28;1153;-81
2023/07/16 08:10:48;;;;;;;;;;;;;;;18.98;66.49;101064.31;5046602;28;1191;-81
2023/07/16 08:13:14;;;;;;;;;;;;;;;19.17;65.95;101070.94;5045489;28;1199;-81
2023/07/16 08:15:39;;;;;;;;;;;;;;;19.18;65.92;101072.56;5043424;28;1090;-82
2023/07/16 08:18:04;;;;;;;;;;;;;;;19.21;66.34;101068.75;5041844;28;1255;-81
2023/07/16 08:20:29;;;;;;;;;;;;;;;19.32;66.11;101065.69;5028193;28;1358;-83
2023/07/16 08:22:55;;;;;;;;;;;;;;;19.46;65.71;101075.47;5045192;28;1185;-81
2023/07/16 08:25:20;;;;;;;;;;;;;;;19.53;65.12;101079.00;5045180;28;1432;-82
2023/07/16 08:27:46;;;;;;;;;;;;;;;19.65;65.27;101076.00;5046268;28;1898;-82
2023/07/16 08:30:11;;;;;;;;;;;;;;;19.73;64.69;101070.66;5028238;28;1197;-82
2023/07/16 08:32:36;;;;;;;;;;;;;;;19.86;63.79;101073.50;5028176;28;1409;-81
2023/07/16 08:35:23;;;;;;;;;;;;;;;19.83;63.10;101068.56;5042368;28;1197;-81
2023/07/16 08:37:48;;;;;;;;;;;;;;;19.80;63.92;101079.47;5041790;28;1548;-81
2023/07/16 08:40:14;;;;;;;;;;;;;;;19.82;63.41;101086.19;5045318;28;1769;-82
2023/07/16 08:42:40;;;;;;;;;;;;;;;19.71;63.42;101085.81;5037688;28;1489;-80
2023/07/16 08:45:14;;;;;;;;;;;;;;;19.69;63.82;101087.81;5041470;28;1125;-81
2023/07/16 08:47:40;;;;;;;;;;;;;;;19.72;63.71;101082.16;5034115;28;1898;-80
2023/07/16 08:50:05;;;;;;;;;;;;;;;19.78;63.77;101086.72;5045862;28;1165;-81
2023/07/16 08:52:30;;;;;;;;;;;;;;;19.87;63.06;101090.91;5044779;28;1106;-82
2023/07/16 08:54:56;;;;;;;;;;;;;;;19.78;63.13;101091.97;5051300;28;1086;-83
2023/07/16 08:57:21;;;;;;;;;;;;;;;19.80;63.28;101095.28;5044678;28;930;-83
2023/07/16 08:59:50;;;;;;;;;;;;;;;19.79;63.15;101083.94;5039989;28;1100;-80
2023/07/16 09:02:19;;;;;;;;;;;;;;;19.78;63.03;101097.25;5040515;28;1153;-82
2023/07/16 09:04:46;;;;;;;;;;;;;;;19.78;63.45;101102.50;5041138;28;1220;-82
2023/07/16 09:07:11;;;;;;;;;;;;;;;19.83;63.35;101094.91;5023521;28;1956;-82
2023/07/16 09:09:37;;;;;;;;;;;;;;;19.90;63.93;101098.47;5036948;28;1131;-81
2023/07/16 09:12:14;;;;;;;;;;;;;;;19.94;63.56;101102.34;5044005;28;1086;-84
2023/07/16 09:14:43;;;;;;;;;;;;;;;19.93;62.62;101113.88;5020653;28;1318;-82
2023/07/16 09:17:09;;;;;;;;;;;;;;;19.83;62.39;101121.22;5043389;28;1228;-81
2023/07/16 09:19:34;;;;;;;;;;;;;;;19.76;62.23;101109.78;5043154;28;1142;-81
2023/07/16 09:21:59;;;;;;;;;;;;;;;19.65;62.09;101107.56;5042319;28;1474;-83
2023/07/16 09:24:25;;;;;;;;;;;;;;;19.58;62.44;101117.97;5042758;28;1253;-82
2023/07/16 09:26:51;;;;;;;;;;;;;;;19.57;62.80;101122.41;5044334;28;1918;-81
2023/07/16 09:29:17;;;;;;;;;;;;;;;19.60;62.96;101122.06;5039440;28;1079;-82
2023/07/16 09:31:59;;;;;;;;;;;;;;;19.61;63.08;101123.72;5022278;28;2164;-82
2023/07/16 09:34:27;;;;;;;;;;;;;;;19.64;63.52;101133.06;5041063;28;1150;-83
2023/07/16 09:36:53;;;;;;;;;;;;;;;19.70;63.25;101121.00;5043945;28;1139;-82
2023/07/16 09:39:21;;;;;;;;;;;;;;;19.77;63.15;101127.19;5043373;28;1248;-81
2023/07/16 09:41:48;;;;;;;;;;;;;;;19.87;62.10;101127.78;5045702;28;1213;-83
2023/07/16 09:44:14;;;;;;;;;;;;;;;19.82;62.59;101130.13;5047308;28;1310;-83
2023/07/16 09:46:39;;;;;;;;;;;;;;;19.85;62.33;101132.41;5047265;28;1949;-81
2023/07/16 09:49:05;;;;;;;;;;;;;;;19.89;62.28;101138.94;5046561;28;1281;-82
2023/07/16 09:51:32;;;;;;;;;;;;;;;20.01;62.40;101145.41;5042401;28;1062;-81
2023/07/16 09:53:58;;;;;;;;;;;;;;;20.08;62.09;101130.53;5033717;28;1300;-82
2023/07/16 09:56:28;;;;;;;;;;;;;;;20.08;61.81;101145.53;5050988;28;1142;-81
2023/07/16 09:58:55;;;;;;;;;;;;;;;20.09;60.96;101141.88;5026652;28;1330;-83
2023/07/16 10:01:20;;;;;;;;;;;;;;;20.11;61.91;101143.34;5054645;28;1169;-82
2023/07/16 10:03:50;;;;;;;;;;;;;;;20.17;61.50;101145.25;5030672;28;1181;-83
2023/07/16 10:06:15;;;;;;;;;;;;;;;20.25;61.16;101146.19;5029795;28;1925;-83
2023/07/16 10:08:40;;;;;;;;;;;;;;;20.26;60.51;101153.06;5053930;28;1143;-83
2023/07/16 10:11:15;;;;;;;;;;;;;;;20.28;60.35;101158.97;5045118;28;1149;-82
2023/07/16 10:13:40;;;;;;;;;;;;;;;20.26;60.38;101163.63;5038581;28;1252;-82
2023/07/16 10:16:05;;;;;;;;;;;;;;;20.19;60.45;101162.72;5036808;28;1303;-81
2023/07/16 10:18:31;;;;;;;;;;;;;;;20.16;60.30;101156.78;5037535;28;1216;-82
2023/07/16 10:21:00;;;;;;;;;;;;;;;20.15;60.65;101157.78;5049937;28;1317;-83
2023/07/16 10:23:36;;;;;;;;;;;;;;;20.19;60.35;101167.97;5052319;28;1197;-83
2023/07/16 10:26:05;;;;;;;;;;;;;;;20.21;60.73;101173.88;5041170;28;1905;-83
2023/07/16 10:28:31;;;;;;;;;;;;;;;20.22;60.21;101178.13;5025913;28;1417;-81
2023/07/16 10:30:56;;;;;;;;;;;;;;;20.27;60.65;101186.31;5028894;28;1384;-82
2023/07/16 10:33:21;;;;;;;;;;;;;;;20.28;60.87;101182.69;5049793;28;1236;-83
2023/07/16 10:35:47;;;;;;;;;;;;;;;20.33;61.33;101177.69;5031477;28;1307;-84
2023/07/16 10:38:12;;;;;;;;;;;;;;;20.38;61.07;101193.78;5026824;28;1280;-82
2023/07/16 10:40:44;;;;;;;;;;;;;;;20.37;60.62;101181.59;5047431;28;991;-83
2023/07/16 10:43:09;;;;;;;;;;;;;;;20.34;60.59;101184.59;5042537;28;1291;-82
2023/07/16 10:45:35;;;;;;;;;;;;;;;20.24;60.13;101186.66;5021655;28;1328;-82
2023/07/16 10:48:00;;;;;;;;;;;;;;;20.15;60.45;101189.38;5028786;28;1965;-82
2023/07/16 10:50:25;;;;;;;;;;;;;;;20.07;60.34;101192.09;5045733;28;1102;-82
2023/07/16 10:52:52;;;;;;;;;;;;;;;20.09;60.50;101197.19;5041609;28;1232;-82
2023/07/16 10:55:17;;;;;;;;;;;;;;;20.05;60.71;101199.34;5046325;28;1105;-82
2023/07/16 10:57:43;;;;;;;;;;;;;;;20.03;60.70;101201.34;5049103;28;1067;-82
2023/07/16 11:00:10;;;;;;;;;;;;;;;20.00;61.07;101200.88;5031447;28;1251;-82
2023/07/16 11:02:40;;;;;;;;;;;;;;;19.98;60.91;101206.31;5031322;28;1343;-81
2023/07/16 11:05:05;;;;;;;;;;;;;;;20.01;61.09;101213.84;5035529;28;1335;-83
2023/07/16 11:07:30;;;;;;;;;;;;;;;20.04;60.98;101202.97;5036304;28;1894;-81
2023/07/16 11:09:55;;;;;;;;;;;;;;;20.07;61.41;101207.91;5052783;28;1099;-81
2023/07/16 11:12:22;;;;;;;;;;;;;;;20.09;61.15;101200.63;5047723;28;1120;-82
2023/07/16 11:14:54;;;;;;;;;;;;;;;20.07;61.41;101210.53;5053442;28;1145;-81
2023/07/16 11:17:22;;;;;;;;;;;;;;;20.06;61.62;101215.97;5037464;28;1266;-83
2023/07/16 11:19:48;;;;;;;;;;;;;;;20.03;61.37;101214.50;5031386;28;1351;-83
2023/07/16 11:22:14;;;;;;;;;;;;;;;20.02;61.48;101231.31;5029740;28;1385;-83
2023/07/16 11:24:40;;;;;;;;;;;;;;;20.03;61.24;101230.31;5050007;28;1207;-83
2023/07/16 11:27:12;;;;;;;;;;;;;;;19.92;62.08;101233.38;5027372;28;1898;-82
2023/07/16 11:29:37;;;;;;;;;;;;;;;19.91;61.75;101233.53;5042305;28;1439;-82
2023/07/16 11:32:02;;;;;;;;;;;;;;;19.89;62.29;101231.06;5047933;28;1468;-82
2023/07/16 11:34:28;;;;;;;;;;;;;;;19.97;62.28;101238.91;5032484;28;1209;-81
2023/07/16 11:36:53;;;;;;;;;;;;;;;20.11;62.28;101230.22;5048479;28;1076;-82
2023/07/16 11:39:20;;;;;;;;;;;;;;;20.22;63.10;101225.53;5029439;28;1430;-82
2023/07/16 11:41:55;;;;;;;;;;;;;;;20.32;62.70;101231.38;5043705;28;1102;-82
2023/07/16 11:44:20;;;;;;;;;;;;;;;20.32;62.70;101239.28;5047534;28;1169;-82
2023/07/16 11:46:46;;;;;;;;;;;;;;;20.34;62.51;101245.19;5046693;28;1867;-82
2023/07/16 11:49:11;;;;;;;;;;;;;;;20.32;63.20;101252.47;5038011;28;1170;-82
2023/07/16 11:51:36;;;;;;;;;;;;;;;20.31;63.70;101245.56;5044904;28;1146;-82
2023/07/16 11:54:02;;;;;;;;;;;;;;;20.30;64.03;101254.44;5048244;28;1177;-83
2023/07/16 11:56:27;;;;;;;;;;;;;;;20.33;64.25;101254.09;5038906;28;1303;-82
2023/07/16 11:58:52;;;;;;;;;;;;;;;20.42;64.86;101258.28;5058641;28;1274;-82
2023/07/16 12:01:17;;;;;;;;;;;;;;;20.54;64.39;101261.34;5047268;28;1087;-83
2023/07/16 12:03:42;;;;;;;;;;;;;;;20.55;63.60;101258.53;5050641;28;1157;-82
2023/07/16 12:06:08;;;;;;;;;;;;;;;20.47;63.82;101260.41;5050762;28;1987;-81
2023/07/16 12:08:33;;;;;;;;;;;;;;;20.52;63.39;101256.22;5034304;28;1169;-81
2023/07/16 12:10:58;;;;;;;;;;;;;;;20.60;64.17;101261.44;5048743;28;1161;-83
2023/07/16 12:13:23;;;;;;;;;;;;;;;20.84;63.69;101256.91;5030867;28;1448;-83
2023/07/16 12:15:49;;;;;;;;;;;;;;;20.94;63.49;101252.19;5032315;28;1160;-82
2023/07/16 12:18:14;;;;;;;;;;;;;;;20.95;63.61;101254.63;5050202;28;1167;-82
2023/07/16 12:20:39;;;;;;;;;;;;;;;21.09;62.92;101258.25;5029538;28;1269;-82
2023/07/16 12:23:05;;;;;;;;;;;;;;;21.14;62.53;101255.88;5025444;28;1752;-82
2023/07/16 12:25:30;;;;;;;;;;;;;;;21.13;62.12;101264.78;5048760;28;1031;-84
2023/07/16 12:27:57;;;;;;;;;;;;;;;21.12;61.20;101265.81;5030095;28;1894;-82
2023/07/16 12:30:23;;;;;;;;;;;;;;;21.05;61.66;101264.91;5025225;28;1528;-82
2023/07/16 12:32:48;;;;;;;;;;;;;;;21.10;62.12;101267.78;5031914;28;1203;-84
2023/07/16 12:35:14;;;;;;;;;;;;;;;21.23;62.34;101266.34;5044749;28;1385;-82
2023/07/16 12:37:39;;;;;;;;;;;;;;;21.34;61.52;101271.19;5043467;28;1464;-83
2023/07/16 12:40:04;;;;;;;;;;;;;;;21.36;61.04;101272.63;5042918;28;1165;-82
2023/07/16 12:42:30;;;;;;;;;;;;;;;21.45;60.91;101263.59;5044323;28;1161;-82